Time;durP1;ratioP1;P1;durP2;ratioP2;P2;SDS_P1;SDS_P2;PMS_P1;PMS_P2;Temp;Humidity;BMP_temperature;BMP_pressure;BME280_temperature;BME280_humidity;BME280_pressure;Samples;Min_cycle;Max_cycle;Signal;HPM_P1;HPM_P2
2021/05/01 00:02:56;;;;;;;17.83;11.35;;;8.90;72.60;;;;;;10160247;28;20028;-64
2021/05/01 00:07:46;;;;;;;20.00;10.65;;;8.90;72.60;;;;;;10172952;27;20323;-64
2021/05/01 00:12:40;;;;;;;17.30;10.35;;;8.90;72.60;;;;;;10173269;27;20032;-62
2021/05/01 00:17:30;;;;;;;18.33;11.70;;;8.80;72.80;;;;;;10163211;27;20048;-63
2021/05/01 00:22:21;;;;;;;17.58;10.27;;;8.90;73.00;;;;;;10161527;28;20289;-65
2021/05/01 00:27:12;;;;;;;16.83;9.80;;;8.80;73.40;;;;;;10161438;28;20541;-63
2021/05/01 00:32:03;;;;;;;18.77;11.02;;;8.80;73.40;;;;;;10170549;27;20114;-62
2021/05/01 00:36:54;;;;;;;19.70;10.23;;;8.90;73.40;;;;;;10161562;28;20081;-63
2021/05/01 00:41:46;;;;;;;21.90;11.93;;;8.80;73.50;;;;;;10165679;27;20035;-63
2021/05/01 00:46:36;;;;;;;18.33;11.32;;;8.70;73.90;;;;;;10172076;27;20048;-65
2021/05/01 00:51:32;;;;;;;21.30;10.50;;;8.70;74.00;;;;;;10177446;27;20035;-62
2021/05/01 00:56:23;;;;;;;15.27;9.57;;;8.60;74.10;;;;;;10170051;27;20172;-62
2021/05/01 01:01:19;;;;;;;19.27;10.63;;;8.60;74.10;;;;;;10166007;27;20505;-64
2021/05/01 01:06:13;;;;;;;19.52;11.90;;;8.60;74.30;;;;;;10162687;27;20031;-63
2021/05/01 01:11:04;;;;;;;19.83;10.95;;;8.50;74.40;;;;;;10173764;28;20027;-63
2021/05/01 01:15:55;;;;;;;17.55;9.85;;;8.40;74.70;;;;;;10176446;28;20035;-62
2021/05/01 01:20:45;;;;;;;17.55;10.43;;;8.40;74.70;;;;;;10171291;28;20579;-62
2021/05/01 01:25:36;;;;;;;22.65;11.23;;;8.30;74.90;;;;;;10168423;28;20635;-63
2021/05/01 01:30:32;;;;;;;16.70;10.50;;;8.20;75.30;;;;;;10174155;28;20064;-62
2021/05/01 01:35:23;;;;;;;16.45;10.75;;;8.20;75.50;;;;;;10173787;28;20039;-63
2021/05/01 01:40:15;;;;;;;19.45;10.15;;;8.20;75.50;;;;;;10171178;28;20577;-62
2021/05/01 01:45:07;;;;;;;14.10;9.18;;;8.20;75.50;;;;;;10176569;28;20047;-62
2021/05/01 01:49:58;;;;;;;17.13;9.73;;;8.20;75.70;;;;;;10174078;28;20227;-62
2021/05/01 01:54:49;;;;;;;17.77;9.48;;;8.30;75.60;;;;;;10176522;28;20363;-62
2021/05/01 01:59:40;;;;;;;19.15;11.50;;;8.30;75.80;;;;;;10168118;28;20455;-62
2021/05/01 02:04:31;;;;;;;15.73;9.95;;;8.20;76.00;;;;;;10168158;28;20056;-63
2021/05/01 02:09:21;;;;;;;17.30;10.52;;;8.20;76.10;;;;;;10177276;28;20335;-62
2021/05/01 02:14:12;;;;;;;17.80;9.60;;;8.20;76.10;;;;;;10178946;28;20058;-62
2021/05/01 02:19:03;;;;;;;18.15;9.55;;;8.20;76.30;;;;;;10168775;28;20519;-62
2021/05/01 02:23:54;;;;;;;15.25;8.98;;;8.20;76.40;;;;;;10183576;27;20053;-61
2021/05/01 02:28:45;;;;;;;16.55;10.18;;;8.20;76.50;;;;;;10170315;27;20035;-62
2021/05/01 02:33:36;;;;;;;19.27;10.45;;;8.10;76.80;;;;;;10171071;27;20028;-61
2021/05/01 02:38:27;;;;;;;18.15;10.05;;;8.00;77.00;;;;;;10174649;27;20043;-61
2021/05/01 02:43:17;;;;;;;17.80;11.20;;;8.00;77.00;;;;;;10178517;27;20152;-61
2021/05/01 02:48:10;;;;;;;16.75;9.48;;;8.00;77.00;;;;;;10141015;27;20044;-61
2021/05/01 02:53:00;;;;;;;15.02;9.18;;;8.00;77.20;;;;;;10169479;27;20082;-62
2021/05/01 02:57:52;;;;;;;16.05;9.13;;;8.00;77.20;;;;;;10161209;28;20588;-60
2021/05/01 03:02:43;;;;;;;20.83;10.73;;;8.00;77.40;;;;;;10170754;27;20209;-60
2021/05/01 03:07:35;;;;;;;18.08;9.98;;;8.00;77.40;;;;;;10155754;27;20144;-61
2021/05/01 03:12:26;;;;;;;18.85;10.45;;;8.00;77.50;;;;;;10160937;28;20034;-62
2021/05/01 03:17:17;;;;;;;17.90;8.93;;;8.00;77.80;;;;;;10158344;27;20047;-60
2021/05/01 03:22:08;;;;;;;21.67;10.60;;;8.00;77.70;;;;;;10139790;27;20036;-60
2021/05/01 03:26:59;;;;;;;13.75;9.02;;;8.10;77.80;;;;;;10165029;27;20215;-61
2021/05/01 03:31:50;;;;;;;19.60;9.77;;;8.10;77.70;;;;;;10160357;27;20089;-61
2021/05/01 03:36:40;;;;;;;16.25;10.40;;;8.10;77.90;;;;;;10162418;27;20043;-60
2021/05/01 03:41:31;;;;;;;17.52;9.80;;;8.20;77.90;;;;;;10159226;28;20291;-61
2021/05/01 03:46:22;;;;;;;24.05;11.60;;;8.10;78.30;;;;;;10164525;27;20054;-62
2021/05/01 03:51:13;;;;;;;17.58;10.10;;;8.10;78.20;;;;;;10165058;27;20023;-62
2021/05/01 03:56:04;;;;;;;17.05;10.77;;;8.10;78.80;;;;;;10163942;27;20023;-60
2021/05/01 04:00:55;;;;;;;20.25;11.13;;;8.00;78.90;;;;;;10171579;27;20092;-60
2021/05/01 04:05:45;;;;;;;21.00;12.13;;;8.00;78.80;;;;;;10173181;27;20719;-61
2021/05/01 04:10:39;;;;;;;23.02;11.73;;;7.90;78.90;;;;;;10171043;27;20031;-60
2021/05/01 04:15:30;;;;;;;20.67;11.00;;;7.90;78.90;;;;;;10171756;27;20878;-60
2021/05/01 04:20:21;;;;;;;21.00;11.23;;;7.90;78.80;;;;;;10179642;27;20500;-60
2021/05/01 04:25:12;;;;;;;19.52;11.70;;;7.80;79.10;;;;;;10154546;27;20043;-59
2021/05/01 04:30:04;;;;;;;25.73;13.18;;;7.80;79.50;;;;;;10175287;27;20318;-60
2021/05/01 04:34:55;;;;;;;21.95;11.93;;;7.80;79.70;;;;;;10166221;27;20060;-59
2021/05/01 04:39:45;;;;;;;22.73;12.57;;;7.80;80.10;;;;;;10165519;27;20047;-60
2021/05/01 04:44:36;;;;;;;21.20;12.30;;;7.90;79.50;;;;;;10160668;27;20059;-61
2021/05/01 04:49:27;;;;;;;19.80;10.93;;;7.80;79.80;;;;;;10167670;27;20039;-60
2021/05/01 04:54:18;;;;;;;26.38;12.32;;;7.80;80.30;;;;;;10166630;27;20031;-61
2021/05/01 04:59:09;;;;;;;22.58;10.73;;;7.70;81.00;;;;;;10178956;27;20076;-59
2021/05/01 05:04:00;;;;;;;22.05;12.48;;;7.80;81.10;;;;;;10166092;28;20038;-63
2021/05/01 05:08:51;;;;;;;24.88;12.50;;;7.90;80.40;;;;;;10179962;27;20037;-60
2021/05/01 05:13:42;;;;;;;23.70;12.00;;;7.70;81.30;;;;;;10170562;28;20044;-59
2021/05/01 05:18:32;;;;;;;25.75;14.13;;;7.70;81.90;;;;;;10163002;28;20614;-60
2021/05/01 05:23:23;;;;;;;23.40;11.43;;;7.70;81.50;;;;;;10166458;28;20093;-59
2021/05/01 05:28:14;;;;;;;24.77;12.20;;;7.70;82.10;;;;;;10170996;28;20030;-59
2021/05/01 05:33:05;;;;;;;23.25;12.57;;;7.90;81.90;;;;;;10180568;28;20593;-60
2021/05/01 05:37:56;;;;;;;24.48;13.40;;;7.80;82.40;;;;;;10172843;28;20093;-62
2021/05/01 05:42:49;;;;;;;26.60;12.52;;;7.80;82.50;;;;;;10190305;28;20409;-59
2021/05/01 05:47:40;;;;;;;26.25;12.48;;;7.90;83.10;;;;;;10174981;28;20745;-59
2021/05/01 05:52:31;;;;;;;22.63;11.18;;;7.80;82.40;;;;;;10174075;28;20296;-59
2021/05/01 05:57:22;;;;;;;27.75;14.57;;;7.90;82.30;;;;;;10180579;27;20035;-59
2021/05/01 06:02:15;;;;;;;22.13;10.73;;;8.00;81.90;;;;;;10163797;27;20505;-59
2021/05/01 06:07:26;;;;;;;30.90;15.02;;;7.80;82.80;;;;;;10186127;27;20041;-61
2021/05/01 06:12:20;;;;;;;25.38;12.02;;;7.90;82.10;;;;;;10192875;27;20046;-61
2021/05/01 06:17:11;;;;;;;28.67;12.95;;;8.00;82.00;;;;;;10183164;27;20044;-59
2021/05/01 06:22:03;;;;;;;25.48;14.45;;;8.10;82.10;;;;;;10174500;27;20477;-59
2021/05/01 06:26:56;;;;;;;25.73;13.55;;;8.40;81.40;;;;;;10183802;27;20050;-59
2021/05/01 06:31:47;;;;;;;29.15;13.40;;;8.60;80.90;;;;;;10177097;27;20027;-60
2021/05/01 06:36:38;;;;;;;28.50;14.73;;;8.60;81.00;;;;;;10186482;27;20043;-61
2021/05/01 06:41:40;;;;;;;25.02;13.45;;;8.80;80.80;;;;;;10180899;27;20036;-59
2021/05/01 06:46:35;;;;;;;24.65;14.05;;;9.00;80.60;;;;;;10193107;27;20054;-60
2021/05/01 06:51:27;;;;;;;29.17;14.80;;;9.30;79.90;;;;;;10198186;27;20026;-59
2021/05/01 06:56:18;;;;;;;30.08;15.23;;;9.30;79.90;;;;;;10193292;27;20415;-59
2021/05/01 07:01:12;;;;;;;29.08;14.52;;;9.30;80.00;;;;;;10178280;27;20042;-62
2021/05/01 07:06:03;;;;;;;30.13;15.32;;;9.30;80.00;;;;;;10196147;27;20039;-58
2021/05/01 07:10:54;;;;;;;29.10;15.32;;;9.30;80.10;;;;;;10193632;27;20032;-59
2021/05/01 07:15:45;;;;;;;27.55;14.75;;;9.40;79.50;;;;;;10196068;27;20051;-60
2021/05/01 07:20:36;;;;;;;27.77;12.98;;;9.40;79.60;;;;;;10193871;27;20101;-60
2021/05/01 07:25:27;;;;;;;25.52;14.27;;;9.50;79.60;;;;;;10193970;27;20437;-60
2021/05/01 07:30:20;;;;;;;28.33;13.90;;;9.40;79.50;;;;;;10197409;27;20027;-60
2021/05/01 07:35:14;;;;;;;26.70;14.38;;;9.60;79.30;;;;;;10192102;27;20343;-59
2021/05/01 07:40:11;;;;;;;26.90;14.65;;;9.70;78.60;;;;;;10172917;27;20080;-60
2021/05/01 07:45:03;;;;;;;22.90;13.18;;;9.80;78.70;;;;;;10185774;27;20083;-58
2021/05/01 07:49:55;;;;;;;23.27;13.38;;;9.70;79.00;;;;;;10184468;27;20032;-61
2021/05/01 07:54:45;;;;;;;24.73;13.55;;;9.60;78.90;;;;;;10171309;27;20452;-59
2021/05/01 07:59:37;;;;;;;25.60;13.90;;;9.80;79.10;;;;;;10176142;27;20047;-59
2021/05/01 08:04:28;;;;;;;28.23;16.67;;;10.00;78.30;;;;;;10169974;27;20036;-59
2021/05/01 08:09:19;;;;;;;27.90;14.95;;;10.20;77.60;;;;;;10177545;27;20247;-59
2021/05/01 08:14:10;;;;;;;27.85;14.23;;;10.30;77.60;;;;;;10180353;27;20035;-61
2021/05/01 08:19:02;;;;;;;28.20;15.40;;;10.30;77.00;;;;;;10179788;27;20070;-59
2021/05/01 08:23:52;;;;;;;29.00;14.73;;;10.20;77.70;;;;;;10182200;27;20260;-58
2021/05/01 08:28:43;;;;;;;31.23;17.23;;;10.30;76.90;;;;;;10175561;27;20148;-59
2021/05/01 08:33:35;;;;;;;28.90;14.32;;;10.30;77.00;;;;;;10181979;27;20035;-58
2021/05/01 08:38:27;;;;;;;27.10;15.43;;;10.40;77.00;;;;;;10170309;27;20035;-59
2021/05/01 08:43:18;;;;;;;30.77;15.60;;;10.40;76.60;;;;;;10171708;27;20074;-59
2021/05/01 08:48:08;;;;;;;28.85;15.25;;;10.70;76.10;;;;;;10183844;27;20047;-59
2021/05/01 08:53:03;;;;;;;29.58;15.32;;;10.80;75.80;;;;;;10190683;27;20035;-60
2021/05/01 08:57:54;;;;;;;27.40;15.00;;;10.80;75.80;;;;;;10189724;27;21135;-59
2021/05/01 09:02:46;;;;;;;26.73;15.30;;;10.90;76.10;;;;;;10190188;27;20495;-60
2021/05/01 09:07:39;;;;;;;24.15;14.82;;;11.40;74.70;;;;;;10187727;27;20374;-60
2021/05/01 09:12:43;;;;;;;25.10;15.00;;;11.70;74.40;;;;;;10184429;27;20078;-58
2021/05/01 09:17:37;;;;;;;23.83;14.65;;;11.60;72.60;;;;;;10187140;28;20502;-60
2021/05/01 09:22:28;;;;;;;27.67;15.05;;;11.80;73.30;;;;;;10189990;28;20038;-59
2021/05/01 09:27:19;;;;;;;23.50;13.98;;;12.10;73.60;;;;;;10192295;28;20371;-59
2021/05/01 09:32:24;;;;;;;23.55;13.93;;;12.20;72.40;;;;;;10188828;27;20038;-59
2021/05/01 09:37:19;;;;;;;23.00;12.80;;;11.90;70.60;;;;;;10199978;27;20282;-60
2021/05/01 09:42:15;;;;;;;27.20;15.23;;;12.00;72.90;;;;;;10198329;27;20110;-58
2021/05/01 09:47:18;;;;;;;19.70;12.10;;;12.20;71.50;;;;;;10189791;27;20591;-59
2021/05/01 09:52:14;;;;;;;20.52;12.30;;;11.70;71.90;;;;;;10179255;27;20335;-61
2021/05/01 09:57:08;;;;;;;18.77;11.10;;;11.70;72.00;;;;;;10169962;27;20043;-59
2021/05/01 10:02:00;;;;;;;21.33;12.45;;;11.60;71.00;;;;;;10172197;27;20034;-59
2021/05/01 10:07:06;;;;;;;23.25;13.05;;;11.50;71.40;;;;;;10180406;27;20418;-61
2021/05/01 10:12:06;;;;;;;;;;;11.60;70.60;;;;;;10184622;27;20130;-60
2021/05/01 10:16:59;;;;;;;22.33;12.90;;;11.50;69.90;;;;;;10182424;27;20168;-60
2021/05/01 10:21:50;;;;;;;18.08;11.43;;;11.70;70.20;;;;;;10184035;27;20506;-58
2021/05/01 10:26:49;;;;;;;18.77;11.68;;;11.50;69.80;;;;;;10186466;27;20031;-58
2021/05/01 10:31:53;;;;;;;19.15;11.10;;;11.70;69.70;;;;;;10177702;27;20143;-60
2021/05/01 10:36:46;;;;;;;22.92;11.88;;;11.60;69.60;;;;;;10169559;27;20155;-59
2021/05/01 10:41:37;;;;;;;17.88;12.00;;;11.60;69.60;;;;;;10157364;27;20435;-60
2021/05/01 10:46:29;;;;;;;20.90;12.57;;;11.60;69.50;;;;;;10177470;27;20296;-60
2021/05/01 10:51:26;;;;;;;23.63;13.10;;;11.70;69.10;;;;;;10179621;27;20513;-60
2021/05/01 10:56:27;;;;;;;20.73;13.10;;;11.80;68.60;;;;;;10171971;27;20028;-60
2021/05/01 11:01:33;;;;;;;23.50;12.80;;;11.80;69.10;;;;;;10170713;27;20035;-59
2021/05/01 11:06:26;;;;;;;23.58;12.23;;;12.00;68.00;;;;;;10175707;27;20543;-59
2021/05/01 11:11:18;;;;;;;20.08;11.73;;;12.00;68.50;;;;;;10156704;27;20035;-60
2021/05/01 11:16:09;;;;;;;19.95;12.52;;;12.10;68.40;;;;;;10174231;27;20027;-60
2021/05/01 11:21:01;;;;;;;20.17;11.82;;;12.40;67.90;;;;;;10177721;27;20603;-60
2021/05/01 11:25:54;;;;;;;20.80;13.43;;;12.40;67.90;;;;;;10161717;27;20108;-61
2021/05/01 11:30:45;;;;;;;17.83;10.95;;;12.50;67.70;;;;;;10176168;27;20032;-62
2021/05/01 11:35:37;;;;;;;21.92;13.20;;;12.40;67.90;;;;;;10173881;27;20039;-60
2021/05/01 11:40:33;;;;;;;14.90;9.23;;;12.30;67.50;;;;;;10177969;27;20036;-61
2021/05/01 11:45:56;;;;;;;15.82;9.82;;;12.20;67.80;;;;;;10171783;27;20043;-59
2021/05/01 11:50:48;;;;;;;18.25;10.57;;;12.30;67.80;;;;;;10174439;27;20111;-60
2021/05/01 11:55:52;;;;;;;15.63;9.82;;;12.40;67.90;;;;;;10174067;27;20055;-59
2021/05/01 12:00:43;;;;;;;15.07;9.43;;;12.40;67.80;;;;;;10161489;27;20045;-62
2021/05/01 12:05:36;;;;;;;15.80;10.85;;;12.40;67.80;;;;;;10170435;27;20031;-63
2021/05/01 12:10:27;;;;;;;19.77;11.60;;;12.50;67.50;;;;;;10177486;27;20035;-63
2021/05/01 12:15:29;;;;;;;16.63;9.88;;;12.60;67.10;;;;;;10174245;27;20035;-58
2021/05/01 12:20:25;;;;;;;17.58;10.48;;;12.60;67.10;;;;;;10174693;27;20438;-60
2021/05/01 12:25:30;;;;;;;17.77;9.68;;;12.60;67.00;;;;;;10167094;27;20069;-65
2021/05/01 12:30:37;;;;;;;;;;;12.80;66.90;;;;;;10169285;27;20130;-64
2021/05/01 12:35:28;;;;;;;15.48;9.40;;;12.70;66.30;;;;;;10159998;27;20177;-64
2021/05/01 12:40:18;;;;;;;17.15;10.93;;;12.90;67.20;;;;;;10173901;27;20074;-64
2021/05/01 12:45:29;;;;;;;14.35;10.40;;;13.10;66.50;;;;;;10175854;27;20826;-56
2021/05/01 12:50:28;;;;;;;15.73;9.23;;;13.10;65.70;;;;;;10185768;27;20027;-57
2021/05/01 12:55:19;;;;;;;17.35;10.38;;;13.00;66.90;;;;;;10185923;27;20130;-60
2021/05/01 13:00:30;;;;;;;14.27;9.88;;;13.20;66.40;;;;;;10188996;27;20524;-60
2021/05/01 13:05:20;;;;;;;16.02;9.63;;;13.20;66.00;;;;;;10185717;27;20177;-59
2021/05/01 13:10:19;;;;;;;16.88;9.45;;;13.30;66.30;;;;;;10192297;27;20690;-59
2021/05/01 13:15:10;;;;;;;14.98;9.63;;;13.50;66.20;;;;;;10188990;28;20028;-58
2021/05/01 13:20:09;;;;;;;13.07;8.68;;;13.50;66.20;;;;;;10186257;28;20495;-61
2021/05/01 13:25:14;;;;;;;15.95;9.70;;;13.40;66.00;;;;;;10171419;28;20524;-58
2021/05/01 13:30:18;;;;;;;13.18;8.27;;;13.30;65.50;;;;;;10188551;28;20062;-56
2021/05/01 13:35:10;;;;;;;12.82;7.82;;;13.10;66.30;;;;;;10189768;28;20591;-54
2021/05/01 13:40:00;;;;;;;13.63;8.48;;;13.00;66.30;;;;;;10185436;28;20382;-55
2021/05/01 13:44:55;;;;;;;11.80;7.63;;;13.00;66.30;;;;;;10190125;28;21086;-58
2021/05/01 13:49:47;;;;;;;10.05;7.43;;;13.10;66.10;;;;;;10190995;28;20622;-55
2021/05/01 13:54:38;;;;;;;14.48;7.47;;;13.10;66.10;;;;;;10187237;28;20031;-53
2021/05/01 13:59:29;;;;;;;14.45;7.78;;;13.10;66.00;;;;;;10173358;28;20211;-56
2021/05/01 14:04:31;;;;;;;13.43;7.90;;;13.10;66.00;;;;;;10191950;28;20094;-57
2021/05/01 14:09:25;;;;;;;12.23;7.50;;;13.20;65.50;;;;;;10184426;28;20031;-57
2021/05/01 14:14:16;;;;;;;12.35;8.10;;;13.20;65.50;;;;;;10172683;28;20409;-55
2021/05/01 14:19:19;;;;;;;11.55;7.63;;;13.20;65.50;;;;;;10168902;27;20061;-55
2021/05/01 14:24:10;;;;;;;11.05;7.50;;;13.20;65.30;;;;;;10179140;27;20123;-56
2021/05/01 14:29:07;;;;;;;9.13;6.57;;;13.30;65.40;;;;;;10178521;27;20542;-58
2021/05/01 14:33:59;;;;;;;12.45;7.50;;;13.40;65.20;;;;;;10180567;27;20151;-55
2021/05/01 14:38:50;;;;;;;11.40;7.20;;;13.50;65.10;;;;;;10169963;27;20073;-55
2021/05/01 14:43:42;;;;;;;13.65;8.18;;;13.60;64.80;;;;;;10179419;27;20039;-56
2021/05/01 14:48:33;;;;;;;13.45;7.80;;;13.60;64.70;;;;;;10162856;27;20494;-57
2021/05/01 14:53:25;;;;;;;13.05;7.53;;;13.40;64.80;;;;;;10177535;27;20253;-55
2021/05/01 14:58:29;;;;;;;15.30;7.97;;;13.50;64.90;;;;;;10169342;27;20043;-54
2021/05/01 15:03:38;;;;;;;12.65;7.63;;;13.40;64.70;;;;;;10175528;27;20534;-56
2021/05/01 15:08:31;;;;;;;12.25;6.97;;;13.40;64.60;;;;;;10166517;27;20035;-53
2021/05/01 15:13:27;;;;;;;11.77;7.47;;;13.40;64.20;;;;;;10175596;27;20019;-54
2021/05/01 15:18:18;;;;;;;12.90;6.55;;;13.30;64.20;;;;;;10161614;27;20051;-53
2021/05/01 15:23:08;;;;;;;10.07;7.32;;;13.20;64.50;;;;;;10169688;27;20030;-56
2021/05/01 15:28:00;;;;;;;12.82;7.35;;;13.40;64.30;;;;;;10169299;27;20031;-54
2021/05/01 15:32:53;;;;;;;13.35;6.85;;;13.60;64.10;;;;;;10181237;27;20077;-55
2021/05/01 15:37:44;;;;;;;11.75;7.10;;;13.60;64.00;;;;;;10169252;27;20071;-57
2021/05/01 15:42:36;;;;;;;12.02;7.82;;;13.50;64.40;;;;;;10168613;27;20539;-51
2021/05/01 15:47:27;;;;;;;15.40;7.32;;;13.30;64.50;;;;;;10122403;28;20540;-55
2021/05/01 15:52:18;;;;;;;11.32;6.68;;;13.30;64.60;;;;;;10127595;28;20028;-56
2021/05/01 15:57:09;;;;;;;13.52;8.32;;;13.30;64.50;;;;;;10126540;28;20145;-55
2021/05/01 16:02:02;;;;;;;12.93;8.65;;;13.30;64.40;;;;;;10147546;28;20031;-55
2021/05/01 16:06:53;;;;;;;13.10;8.30;;;13.30;64.40;;;;;;10126663;28;20020;-62
2021/05/01 16:11:44;;;;;;;13.02;8.45;;;13.10;64.60;;;;;;10126971;28;20040;-54
2021/05/01 16:16:35;;;;;;;14.45;9.90;;;13.10;64.50;;;;;;10126632;28;20095;-55
2021/05/01 16:21:26;;;;;;;12.27;7.60;;;13.10;64.60;;;;;;10131833;28;20669;-55
2021/05/01 16:26:16;;;;;;;13.73;7.70;;;13.00;64.60;;;;;;10131271;28;20573;-56
2021/05/01 16:31:08;;;;;;;13.02;7.25;;;13.10;64.60;;;;;;10120144;28;20101;-57
2021/05/01 16:35:59;;;;;;;12.05;7.68;;;13.00;64.50;;;;;;10124353;28;20093;-52
2021/05/01 16:40:49;;;;;;;12.85;8.65;;;13.00;65.20;;;;;;10126077;28;20040;-57
2021/05/01 16:45:40;;;;;;;15.15;7.70;;;13.00;64.40;;;;;;10134615;27;20047;-55
2021/05/01 16:50:31;;;;;;;12.73;7.95;;;13.00;64.30;;;;;;10179009;27;21908;-55
2021/05/01 16:55:22;;;;;;;14.70;8.30;;;13.00;64.40;;;;;;10172592;27;20314;-57
2021/05/01 17:00:13;;;;;;;13.32;7.15;;;13.20;64.10;;;;;;10177458;27;20035;-55
2021/05/01 17:05:06;;;;;;;11.25;6.35;;;13.00;64.40;;;;;;10176727;27;20031;-56
2021/05/01 17:09:57;;;;;;;13.45;6.65;;;12.90;64.30;;;;;;10153361;27;21050;-56
2021/05/01 17:14:47;;;;;;;11.35;6.13;;;12.90;64.50;;;;;;10171354;28;20032;-58
2021/05/01 17:19:39;;;;;;;12.18;7.35;;;12.90;64.30;;;;;;10169418;28;20047;-56
2021/05/01 17:24:30;;;;;;;11.63;7.22;;;12.90;64.50;;;;;;10163534;28;20059;-53
2021/05/01 17:29:21;;;;;;;10.85;6.30;;;12.80;64.60;;;;;;10163420;28;20032;-57
2021/05/01 17:34:12;;;;;;;12.50;7.25;;;12.60;65.20;;;;;;10177423;28;20419;-55
2021/05/01 17:39:04;;;;;;;11.75;6.97;;;12.60;65.00;;;;;;10172877;28;20043;-54
2021/05/01 17:43:55;;;;;;;8.73;6.00;;;12.60;65.10;;;;;;10173887;28;20497;-51
2021/05/01 17:48:45;;;;;;;11.45;6.75;;;12.60;64.90;;;;;;10157242;28;20039;-57
2021/05/01 17:53:37;;;;;;;12.25;7.50;;;12.50;65.20;;;;;;10177932;27;20036;-56
2021/05/01 17:58:29;;;;;;;9.32;5.93;;;12.50;65.00;;;;;;10167065;27;20312;-55
2021/05/01 18:03:20;;;;;;;13.30;6.78;;;12.40;65.30;;;;;;10179384;27;20342;-55
2021/05/01 18:08:10;;;;;;;11.27;6.68;;;12.30;65.70;;;;;;10187786;27;20352;-56
2021/05/01 18:13:01;;;;;;;13.23;6.88;;;12.30;65.60;;;;;;10183355;27;20077;-54
2021/05/01 18:17:52;;;;;;;14.85;9.23;;;12.30;65.40;;;;;;10183753;27;20127;-56
2021/05/01 18:22:43;;;;;;;18.55;9.80;;;12.20;65.60;;;;;;10174971;27;20039;-58
2021/05/01 18:27:39;;;;;;;19.13;9.43;;;12.20;65.60;;;;;;10187227;27;20055;-54
2021/05/01 18:32:30;;;;;;;14.50;9.15;;;11.90;66.30;;;;;;10178524;27;20027;-58
2021/05/01 18:37:21;;;;;;;16.48;10.40;;;11.70;66.80;;;;;;10182424;27;20039;-54
2021/05/01 18:42:12;;;;;;;14.70;9.98;;;11.70;67.10;;;;;;10185923;27;20063;-57
2021/05/01 18:47:05;;;;;;;18.70;11.52;;;11.60;67.50;;;;;;10176728;27;20413;-58
2021/05/01 18:51:59;;;;;;;21.67;11.38;;;11.60;67.80;;;;;;10173428;27;20039;-52
2021/05/01 18:56:50;;;;;;;20.20;11.55;;;11.40;69.30;;;;;;10147097;28;20043;-55
2021/05/01 19:01:42;;;;;;;23.63;13.68;;;11.30;70.30;;;;;;10142129;28;20031;-57
2021/05/01 19:06:33;;;;;;;21.80;13.32;;;11.10;70.70;;;;;;10160118;27;20027;-53
2021/05/01 19:11:27;;;;;;;22.58;12.45;;;11.10;70.80;;;;;;10172625;27;20036;-56
2021/05/01 19:16:19;;;;;;;21.95;12.27;;;11.00;71.50;;;;;;10176821;27;20110;-58
2021/05/01 19:21:10;;;;;;;17.55;12.13;;;11.00;71.90;;;;;;10148955;28;20044;-55
2021/05/01 19:26:03;;;;;;;23.70;14.07;;;11.00;72.90;;;;;;10155468;28;20112;-53
2021/05/01 19:30:54;;;;;;;24.73;13.77;;;11.00;72.70;;;;;;10161954;28;21266;-54
2021/05/01 19:35:46;;;;;;;22.60;13.40;;;11.00;73.00;;;;;;10175506;27;20032;-61
2021/05/01 19:40:37;;;;;;;24.02;13.80;;;11.10;73.20;;;;;;10154845;28;20044;-58
2021/05/01 19:45:35;;;;;;;22.17;13.10;;;11.00;73.60;;;;;;10166908;27;20920;-59
2021/05/01 19:50:26;;;;;;;18.52;12.02;;;11.00;74.20;;;;;;10164208;27;20028;-53
2021/05/01 19:55:17;;;;;;;25.90;11.40;;;11.00;74.40;;;;;;10164930;28;20353;-61
2021/05/01 20:00:11;;;;;;;20.23;12.45;;;11.00;74.90;;;;;;10173435;27;20051;-54
2021/05/01 20:05:03;;;;;;;21.67;11.93;;;11.00;75.10;;;;;;10166411;27;20031;-54
2021/05/01 20:09:56;;;;;;;21.02;12.95;;;11.00;74.80;;;;;;10161006;27;20545;-56
2021/05/01 20:14:46;;;;;;;22.92;13.07;;;10.90;75.40;;;;;;10168866;27;20494;-56
2021/05/01 20:19:37;;;;;;;19.63;11.57;;;10.90;75.70;;;;;;10171892;27;20047;-53
2021/05/01 20:24:30;;;;;;;18.52;10.75;;;10.80;75.90;;;;;;10146345;27;20139;-55
2021/05/01 20:29:21;;;;;;;22.90;13.02;;;11.00;76.10;;;;;;10166802;27;20028;-57
2021/05/01 20:34:12;;;;;;;19.02;10.55;;;11.00;76.00;;;;;;10172500;27;20023;-58
2021/05/01 20:39:03;;;;;;;20.20;12.60;;;11.00;76.30;;;;;;10159677;27;20296;-58
2021/05/01 20:43:54;;;;;;;21.85;12.57;;;11.00;76.50;;;;;;10159826;27;20036;-56
2021/05/01 20:48:46;;;;;;;18.77;11.02;;;10.90;76.80;;;;;;10183205;27;20584;-61
2021/05/01 20:53:38;;;;;;;19.92;11.40;;;11.00;76.50;;;;;;10171138;27;20031;-54
2021/05/01 20:58:29;;;;;;;17.27;11.20;;;11.00;76.50;;;;;;10174341;27;20481;-53
2021/05/01 21:03:19;;;;;;;18.25;10.38;;;11.00;76.70;;;;;;10167377;27;20038;-57
2021/05/01 21:08:11;;;;;;;19.50;10.30;;;11.00;76.90;;;;;;10184808;27;20591;-54
2021/05/01 21:13:02;;;;;;;21.20;11.38;;;11.00;77.00;;;;;;10147807;27;20032;-52
2021/05/01 21:17:52;;;;;;;23.40;11.52;;;11.00;76.90;;;;;;10173410;28;20987;-58
2021/05/01 21:22:43;;;;;;;20.10;11.00;;;11.10;76.80;;;;;;10163901;28;20158;-54
2021/05/01 21:27:34;;;;;;;19.15;10.93;;;11.10;76.70;;;;;;10164063;28;20521;-57
2021/05/01 21:32:25;;;;;;;17.17;10.73;;;11.10;76.80;;;;;;10179977;27;20460;-56
2021/05/01 21:37:16;;;;;;;19.25;11.00;;;11.10;76.90;;;;;;10175180;27;20047;-58
2021/05/01 21:42:08;;;;;;;17.75;10.25;;;11.10;77.00;;;;;;10191307;27;20398;-57
2021/05/01 21:46:59;;;;;;;18.20;10.10;;;11.10;77.00;;;;;;10184216;27;20096;-53
2021/05/01 21:51:51;;;;;;;16.67;9.88;;;11.10;77.30;;;;;;10181967;27;20027;-58
2021/05/01 21:56:42;;;;;;;20.23;10.98;;;11.10;76.70;;;;;;10195346;27;20035;-55
2021/05/01 22:01:33;;;;;;;17.75;9.55;;;11.10;76.60;;;;;;10181971;27;20028;-52
2021/05/01 22:06:24;;;;;;;21.05;10.95;;;11.20;76.30;;;;;;10183473;27;20131;-53
2021/05/01 22:11:18;;;;;;;18.80;10.65;;;11.20;76.20;;;;;;10174439;27;20038;-51
2021/05/01 22:16:11;;;;;;;15.25;9.40;;;11.20;76.20;;;;;;10188124;27;20039;-53
2021/05/01 22:26:15;;;;;;;27.33;12.23;;;11.10;75.80;;;;;;10180072;27;20263;-57
2021/05/01 22:31:07;;;;;;;17.88;10.27;;;11.20;75.40;;;;;;10180355;27;20099;-58
2021/05/01 22:35:58;;;;;;;16.77;10.05;;;11.10;75.30;;;;;;10187156;27;20043;-55
2021/05/01 22:40:49;;;;;;;18.75;10.95;;;11.00;75.40;;;;;;10175584;27;20051;-52
2021/05/01 22:45:40;;;;;;;18.67;10.63;;;10.90;75.60;;;;;;10182287;27;20108;-54
2021/05/01 22:50:30;;;;;;;16.30;9.50;;;10.90;75.60;;;;;;10181639;27;20027;-57
2021/05/01 22:55:22;;;;;;;16.65;10.05;;;11.00;75.40;;;;;;10181069;27;20051;-56
2021/05/01 23:00:16;;;;;;;17.70;9.82;;;11.00;75.60;;;;;;10183875;27;20227;-51
2021/05/01 23:05:10;;;;;;;21.90;11.20;;;11.00;75.70;;;;;;10179848;27;20031;-57
2021/05/01 23:10:01;;;;;;;18.40;10.93;;;10.80;76.10;;;;;;10166133;27;20031;-53
2021/05/01 23:14:52;;;;;;;18.95;12.07;;;10.80;76.00;;;;;;10181589;27;20057;-53
2021/05/01 23:19:45;;;;;;;17.58;10.13;;;10.80;76.20;;;;;;10180665;27;20042;-52
2021/05/01 23:24:37;;;;;;;19.67;10.32;;;10.90;76.30;;;;;;10180082;27;20035;-50
2021/05/01 23:29:29;;;;;;;18.25;11.25;;;10.90;76.20;;;;;;10177392;27;20023;-56
2021/05/01 23:34:19;;;;;;;21.25;11.38;;;10.90;76.20;;;;;;10181712;27;20526;-56
2021/05/01 23:39:10;;;;;;;18.90;11.13;;;10.80;76.10;;;;;;10178206;27;20115;-55
2021/05/01 23:44:01;;;;;;;17.88;11.50;;;10.70;76.50;;;;;;10174939;27;20054;-56
2021/05/01 23:48:53;;;;;;;17.10;11.20;;;10.70;76.60;;;;;;10176512;27;20208;-56
2021/05/01 23:53:44;;;;;;;19.00;10.05;;;10.70;76.90;;;;;;10166809;27;20024;-55
2021/05/01 23:58:36;;;;;;;18.40;10.45;;;10.60;77.40;;;;;;10180042;27;20031;-54
